sensor_id;sensor_type;location;lat;lon;timestamp;temperature;humidity
15172;DHT22;7686;52.184;9.280;2023-04-06T00:00:08;27.60;28.30
15172;DHT22;7686;52.184;9.280;2023-04-06T00:02:36;27.60;28.30
15172;DHT22;7686;52.184;9.280;2023-04-06T00:05:03;27.60;28.30
15172;DHT22;7686;52.184;9.280;2023-04-06T00:07:30;27.60;28.30
15172;DHT22;7686;52.184;9.280;2023-04-06T00:09:56;27.60;28.30
15172;DHT22;7686;52.184;9.280;2023-04-06T00:12:23;27.60;28.30
15172;DHT22;7686;52.184;9.280;2023-04-06T00:14:50;27.60;28.40
15172;DHT22;7686;52.184;9.280;2023-04-06T00:17:17;27.50;28.30
15172;DHT22;7686;52.184;9.280;2023-04-06T00:19:43;27.50;28.40
15172;DHT22;7686;52.184;9.280;2023-04-06T00:22:10;27.50;28.40
15172;DHT22;7686;52.184;9.280;2023-04-06T00:24:37;27.50;28.40
15172;DHT22;7686;52.184;9.280;2023-04-06T00:27:04;27.50;28.50
15172;DHT22;7686;52.184;9.280;2023-04-06T00:29:31;27.50;28.50
15172;DHT22;7686;52.184;9.280;2023-04-06T00:31:57;27.40;28.40
15172;DHT22;7686;52.184;9.280;2023-04-06T00:34:24;27.50;28.50
15172;DHT22;7686;52.184;9.280;2023-04-06T00:36:50;27.40;28.40
15172;DHT22;7686;52.184;9.280;2023-04-06T00:39:17;27.40;28.50
15172;DHT22;7686;52.184;9.280;2023-04-06T00:41:50;27.40;28.50
15172;DHT22;7686;52.184;9.280;2023-04-06T00:44:17;27.40;28.60
15172;DHT22;7686;52.184;9.280;2023-04-06T00:46:44;27.40;28.50
15172;DHT22;7686;52.184;9.280;2023-04-06T00:49:11;27.40;28.60
15172;DHT22;7686;52.184;9.280;2023-04-06T00:51:37;27.40;28.60
15172;DHT22;7686;52.184;9.280;2023-04-06T00:54:04;27.40;28.60
15172;DHT22;7686;52.184;9.280;2023-04-06T00:56:31;27.40;28.60
15172;DHT22;7686;52.184;9.280;2023-04-06T00:58:58;27.30;28.60
15172;DHT22;7686;52.184;9.280;2023-04-06T01:01:25;27.30;28.60
15172;DHT22;7686;52.184;9.280;2023-04-06T01:03:52;27.30;28.60
15172;DHT22;7686;52.184;9.280;2023-04-06T01:06:19;27.30;28.60
15172;DHT22;7686;52.184;9.280;2023-04-06T01:08:45;27.30;28.70
15172;DHT22;7686;52.184;9.280;2023-04-06T01:11:12;27.30;28.70
15172;DHT22;7686;52.184;9.280;2023-04-06T01:13:39;27.30;28.70
15172;DHT22;7686;52.184;9.280;2023-04-06T01:16:05;27.20;28.70
15172;DHT22;7686;52.184;9.280;2023-04-06T01:18:32;27.20;28.70
15172;DHT22;7686;52.184;9.280;2023-04-06T01:20:59;27.20;28.70
15172;DHT22;7686;52.184;9.280;2023-04-06T01:23:26;27.20;28.70
15172;DHT22;7686;52.184;9.280;2023-04-06T01:25:52;27.20;28.70
15172;DHT22;7686;52.184;9.280;2023-04-06T01:28:19;27.20;28.80
15172;DHT22;7686;52.184;9.280;2023-04-06T01:30:46;27.20;28.80
15172;DHT22;7686;52.184;9.280;2023-04-06T01:33:13;27.20;28.80
15172;DHT22;7686;52.184;9.280;2023-04-06T01:35:40;27.10;28.70
15172;DHT22;7686;52.184;9.280;2023-04-06T01:38:06;27.10;28.80
15172;DHT22;7686;52.184;9.280;2023-04-06T01:40:33;27.10;28.80
15172;DHT22;7686;52.184;9.280;2023-04-06T01:43:00;27.10;28.80
15172;DHT22;7686;52.184;9.280;2023-04-06T01:45:26;27.10;28.80
15172;DHT22;7686;52.184;9.280;2023-04-06T01:47:53;27.20;28.90
15172;DHT22;7686;52.184;9.280;2023-04-06T01:50:20;27.10;28.90
15172;DHT22;7686;52.184;9.280;2023-04-06T01:52:46;27.10;28.90
15172;DHT22;7686;52.184;9.280;2023-04-06T01:55:13;27.00;28.90
15172;DHT22;7686;52.184;9.280;2023-04-06T01:57:40;27.00;28.80
15172;DHT22;7686;52.184;9.280;2023-04-06T02:00:07;27.00;28.80
15172;DHT22;7686;52.184;9.280;2023-04-06T02:02:34;27.00;28.80
15172;DHT22;7686;52.184;9.280;2023-04-06T02:05:00;27.10;28.90
15172;DHT22;7686;52.184;9.280;2023-04-06T02:07:27;27.00;28.90
15172;DHT22;7686;52.184;9.280;2023-04-06T02:09:55;27.00;28.90
15172;DHT22;7686;52.184;9.280;2023-04-06T02:12:22;27.00;28.90
15172;DHT22;7686;52.184;9.280;2023-04-06T02:14:48;27.00;28.90
15172;DHT22;7686;52.184;9.280;2023-04-06T02:17:15;27.00;29.00
15172;DHT22;7686;52.184;9.280;2023-04-06T02:19:42;27.00;28.90
15172;DHT22;7686;52.184;9.280;2023-04-06T02:22:09;27.00;29.00
15172;DHT22;7686;52.184;9.280;2023-04-06T02:24:36;27.00;29.00
15172;DHT22;7686;52.184;9.280;2023-04-06T02:27:03;26.90;28.90
15172;DHT22;7686;52.184;9.280;2023-04-06T02:29:29;27.00;29.00
15172;DHT22;7686;52.184;9.280;2023-04-06T02:31:56;26.90;29.00
15172;DHT22;7686;52.184;9.280;2023-04-06T02:34:23;26.90;29.00
15172;DHT22;7686;52.184;9.280;2023-04-06T02:36:49;26.90;29.00
15172;DHT22;7686;52.184;9.280;2023-04-06T02:39:17;26.90;29.10
15172;DHT22;7686;52.184;9.280;2023-04-06T02:41:44;26.90;29.10
15172;DHT22;7686;52.184;9.280;2023-04-06T02:44:11;26.90;29.10
15172;DHT22;7686;52.184;9.280;2023-04-06T02:46:37;26.90;29.10
15172;DHT22;7686;52.184;9.280;2023-04-06T02:49:04;26.90;29.10
15172;DHT22;7686;52.184;9.280;2023-04-06T02:51:32;26.80;29.00
15172;DHT22;7686;52.184;9.280;2023-04-06T02:53:59;26.80;29.10
15172;DHT22;7686;52.184;9.280;2023-04-06T02:56:26;26.80;29.10
15172;DHT22;7686;52.184;9.280;2023-04-06T02:58:52;26.80;29.10
15172;DHT22;7686;52.184;9.280;2023-04-06T03:01:19;26.80;29.20
15172;DHT22;7686;52.184;9.280;2023-04-06T03:03:46;26.80;29.10
15172;DHT22;7686;52.184;9.280;2023-04-06T03:06:13;26.80;29.10
15172;DHT22;7686;52.184;9.280;2023-04-06T03:08:40;26.80;29.10
15172;DHT22;7686;52.184;9.280;2023-04-06T03:11:06;26.70;29.10
15172;DHT22;7686;52.184;9.280;2023-04-06T03:13:33;26.80;29.10
15172;DHT22;7686;52.184;9.280;2023-04-06T03:16:00;26.80;29.10
15172;DHT22;7686;52.184;9.280;2023-04-06T03:18:27;26.70;29.10
15172;DHT22;7686;52.184;9.280;2023-04-06T03:20:53;26.70;29.10
15172;DHT22;7686;52.184;9.280;2023-04-06T03:23:20;26.70;29.20
15172;DHT22;7686;52.184;9.280;2023-04-06T03:25:47;26.70;29.20
15172;DHT22;7686;52.184;9.280;2023-04-06T03:28:14;26.70;29.20
15172;DHT22;7686;52.184;9.280;2023-04-06T03:30:41;26.70;29.20
15172;DHT22;7686;52.184;9.280;2023-04-06T03:33:08;26.70;29.30
15172;DHT22;7686;52.184;9.280;2023-04-06T03:35:34;26.70;29.30
15172;DHT22;7686;52.184;9.280;2023-04-06T03:38:04;26.70;29.30
15172;DHT22;7686;52.184;9.280;2023-04-06T03:40:31;26.70;29.30
15172;DHT22;7686;52.184;9.280;2023-04-06T03:42:57;26.70;29.30
15172;DHT22;7686;52.184;9.280;2023-04-06T03:45:24;26.70;29.40
15172;DHT22;7686;52.184;9.280;2023-04-06T03:47:51;26.70;29.40
15172;DHT22;7686;52.184;9.280;2023-04-06T03:50:18;26.70;29.40
15172;DHT22;7686;52.184;9.280;2023-04-06T03:52:44;26.70;29.40
15172;DHT22;7686;52.184;9.280;2023-04-06T03:55:11;26.70;29.40
15172;DHT22;7686;52.184;9.280;2023-04-06T03:57:38;26.70;29.40
15172;DHT22;7686;52.184;9.280;2023-04-06T04:00:05;26.60;29.40
15172;DHT22;7686;52.184;9.280;2023-04-06T04:02:32;26.70;29.40
15172;DHT22;7686;52.184;9.280;2023-04-06T04:04:59;26.60;29.40
15172;DHT22;7686;52.184;9.280;2023-04-06T04:07:26;26.70;29.50
15172;DHT22;7686;52.184;9.280;2023-04-06T04:09:52;26.60;29.50
15172;DHT22;7686;52.184;9.280;2023-04-06T04:12:19;26.70;29.50
15172;DHT22;7686;52.184;9.280;2023-04-06T04:14:46;26.70;29.50
15172;DHT22;7686;52.184;9.280;2023-04-06T04:17:12;26.70;29.60
15172;DHT22;7686;52.184;9.280;2023-04-06T04:19:39;26.60;29.60
15172;DHT22;7686;52.184;9.280;2023-04-06T04:22:06;26.70;29.60
15172;DHT22;7686;52.184;9.280;2023-04-06T04:24:33;26.70;29.60
15172;DHT22;7686;52.184;9.280;2023-04-06T04:27:00;26.70;29.60
15172;DHT22;7686;52.184;9.280;2023-04-06T04:29:29;26.70;29.60
15172;DHT22;7686;52.184;9.280;2023-04-06T04:31:56;26.80;29.60
15172;DHT22;7686;52.184;9.280;2023-04-06T04:34:23;26.80;29.60
15172;DHT22;7686;52.184;9.280;2023-04-06T04:36:52;26.80;29.60
15172;DHT22;7686;52.184;9.280;2023-04-06T04:39:19;26.90;29.60
15172;DHT22;7686;52.184;9.280;2023-04-06T04:41:46;26.90;29.60
15172;DHT22;7686;52.184;9.280;2023-04-06T04:44:13;26.90;29.60
15172;DHT22;7686;52.184;9.280;2023-04-06T04:46:40;27.00;29.70
15172;DHT22;7686;52.184;9.280;2023-04-06T04:49:07;27.00;29.70
15172;DHT22;7686;52.184;9.280;2023-04-06T04:51:34;27.00;29.60
15172;DHT22;7686;52.184;9.280;2023-04-06T04:54:02;27.10;29.60
15172;DHT22;7686;52.184;9.280;2023-04-06T04:56:29;27.10;29.60
15172;DHT22;7686;52.184;9.280;2023-04-06T04:58:56;27.10;29.70
15172;DHT22;7686;52.184;9.280;2023-04-06T05:01:23;27.10;29.70
15172;DHT22;7686;52.184;9.280;2023-04-06T05:03:49;27.10;29.70
15172;DHT22;7686;52.184;9.280;2023-04-06T05:06:16;27.20;29.60
15172;DHT22;7686;52.184;9.280;2023-04-06T05:08:43;27.20;29.50
15172;DHT22;7686;52.184;9.280;2023-04-06T05:11:10;27.30;29.60
15172;DHT22;7686;52.184;9.280;2023-04-06T05:13:36;27.30;29.50
15172;DHT22;7686;52.184;9.280;2023-04-06T05:16:03;27.30;29.50
15172;DHT22;7686;52.184;9.280;2023-04-06T05:18:30;27.40;29.50
15172;DHT22;7686;52.184;9.280;2023-04-06T05:20:57;27.40;29.50
15172;DHT22;7686;52.184;9.280;2023-04-06T05:23:23;27.40;29.50
15172;DHT22;7686;52.184;9.280;2023-04-06T05:25:50;27.40;29.40
15172;DHT22;7686;52.184;9.280;2023-04-06T05:28:18;27.50;30.00
15172;DHT22;7686;52.184;9.280;2023-04-06T05:30:44;27.50;29.50
15172;DHT22;7686;52.184;9.280;2023-04-06T05:33:12;27.50;29.50
15172;DHT22;7686;52.184;9.280;2023-04-06T05:35:39;27.50;29.50
15172;DHT22;7686;52.184;9.280;2023-04-06T05:38:08;27.50;29.50
15172;DHT22;7686;52.184;9.280;2023-04-06T05:40:37;27.50;29.50
15172;DHT22;7686;52.184;9.280;2023-04-06T05:43:04;27.60;29.50
15172;DHT22;7686;52.184;9.280;2023-04-06T05:45:31;27.60;29.50
15172;DHT22;7686;52.184;9.280;2023-04-06T05:47:58;27.60;29.50
15172;DHT22;7686;52.184;9.280;2023-04-06T05:50:24;27.60;29.50
15172;DHT22;7686;52.184;9.280;2023-04-06T05:52:51;27.60;29.50
15172;DHT22;7686;52.184;9.280;2023-04-06T05:55:18;27.60;29.50
15172;DHT22;7686;52.184;9.280;2023-04-06T05:57:45;27.60;29.50
15172;DHT22;7686;52.184;9.280;2023-04-06T06:00:12;27.60;29.50
15172;DHT22;7686;52.184;9.280;2023-04-06T06:02:39;27.60;29.50
15172;DHT22;7686;52.184;9.280;2023-04-06T06:05:06;27.70;29.60
15172;DHT22;7686;52.184;9.280;2023-04-06T06:07:33;27.70;29.60
15172;DHT22;7686;52.184;9.280;2023-04-06T06:10:00;27.70;29.60
15172;DHT22;7686;52.184;9.280;2023-04-06T06:12:27;27.70;29.60
15172;DHT22;7686;52.184;9.280;2023-04-06T06:14:54;27.70;29.60
15172;DHT22;7686;52.184;9.280;2023-04-06T06:17:20;27.80;29.60
15172;DHT22;7686;52.184;9.280;2023-04-06T06:19:47;27.80;29.60
15172;DHT22;7686;52.184;9.280;2023-04-06T06:22:14;27.80;29.60
15172;DHT22;7686;52.184;9.280;2023-04-06T06:24:41;27.70;29.90
15172;DHT22;7686;52.184;9.280;2023-04-06T06:27:07;27.70;29.90
15172;DHT22;7686;52.184;9.280;2023-04-06T06:29:34;27.80;29.80
15172;DHT22;7686;52.184;9.280;2023-04-06T06:32:01;27.80;29.60
15172;DHT22;7686;52.184;9.280;2023-04-06T06:34:27;27.90;29.70
15172;DHT22;7686;52.184;9.280;2023-04-06T06:36:54;27.90;29.70
15172;DHT22;7686;52.184;9.280;2023-04-06T06:39:21;28.00;29.60
15172;DHT22;7686;52.184;9.280;2023-04-06T06:41:48;28.00;29.50
15172;DHT22;7686;52.184;9.280;2023-04-06T06:44:15;28.00;29.50
15172;DHT22;7686;52.184;9.280;2023-04-06T06:46:43;28.10;29.60
15172;DHT22;7686;52.184;9.280;2023-04-06T06:49:09;28.10;29.50
15172;DHT22;7686;52.184;9.280;2023-04-06T06:51:38;28.10;29.50
15172;DHT22;7686;52.184;9.280;2023-04-06T06:54:05;28.10;29.50
15172;DHT22;7686;52.184;9.280;2023-04-06T06:56:32;28.10;29.50
15172;DHT22;7686;52.184;9.280;2023-04-06T06:58:59;28.20;29.60
15172;DHT22;7686;52.184;9.280;2023-04-06T07:01:26;28.20;29.60
15172;DHT22;7686;52.184;9.280;2023-04-06T07:03:52;28.20;29.50
15172;DHT22;7686;52.184;9.280;2023-04-06T07:06:20;28.20;29.60
15172;DHT22;7686;52.184;9.280;2023-04-06T07:08:46;28.30;29.60
15172;DHT22;7686;52.184;9.280;2023-04-06T07:11:13;28.30;29.60
15172;DHT22;7686;52.184;9.280;2023-04-06T07:13:40;28.30;29.50
15172;DHT22;7686;52.184;9.280;2023-04-06T07:16:06;28.30;29.50
15172;DHT22;7686;52.184;9.280;2023-04-06T07:18:33;28.40;29.60
15172;DHT22;7686;52.184;9.280;2023-04-06T07:21:02;28.40;29.60
15172;DHT22;7686;52.184;9.280;2023-04-06T07:23:28;28.40;28.40
15172;DHT22;7686;52.184;9.280;2023-04-06T07:25:55;28.40;27.10
15172;DHT22;7686;52.184;9.280;2023-04-06T07:28:22;28.30;26.40
15172;DHT22;7686;52.184;9.280;2023-04-06T07:30:48;28.20;26.20
15172;DHT22;7686;52.184;9.280;2023-04-06T07:33:15;28.00;26.30
15172;DHT22;7686;52.184;9.280;2023-04-06T07:35:42;27.90;26.50
15172;DHT22;7686;52.184;9.280;2023-04-06T07:38:09;27.90;26.70
15172;DHT22;7686;52.184;9.280;2023-04-06T07:40:35;27.80;26.90
15172;DHT22;7686;52.184;9.280;2023-04-06T07:43:02;27.70;27.10
15172;DHT22;7686;52.184;9.280;2023-04-06T07:45:29;27.70;27.20
15172;DHT22;7686;52.184;9.280;2023-04-06T07:47:56;27.80;27.40
15172;DHT22;7686;52.184;9.280;2023-04-06T07:50:23;27.80;27.40
15172;DHT22;7686;52.184;9.280;2023-04-06T07:52:49;27.80;27.50
15172;DHT22;7686;52.184;9.280;2023-04-06T07:55:16;27.80;27.60
15172;DHT22;7686;52.184;9.280;2023-04-06T07:57:43;27.80;27.70
15172;DHT22;7686;52.184;9.280;2023-04-06T08:00:10;27.90;27.80
15172;DHT22;7686;52.184;9.280;2023-04-06T08:02:37;27.90;27.80
15172;DHT22;7686;52.184;9.280;2023-04-06T08:05:05;28.00;28.00
15172;DHT22;7686;52.184;9.280;2023-04-06T08:07:32;28.00;28.00
15172;DHT22;7686;52.184;9.280;2023-04-06T08:09:58;28.10;28.10
15172;DHT22;7686;52.184;9.280;2023-04-06T08:12:26;28.10;28.10
15172;DHT22;7686;52.184;9.280;2023-04-06T08:14:52;28.10;28.10
15172;DHT22;7686;52.184;9.280;2023-04-06T08:17:19;28.20;28.20
15172;DHT22;7686;52.184;9.280;2023-04-06T08:19:46;28.30;28.30
15172;DHT22;7686;52.184;9.280;2023-04-06T08:22:13;28.30;28.30
15172;DHT22;7686;52.184;9.280;2023-04-06T08:24:39;28.40;28.30
15172;DHT22;7686;52.184;9.280;2023-04-06T08:27:06;28.40;28.30
15172;DHT22;7686;52.184;9.280;2023-04-06T08:29:34;28.30;28.30
15172;DHT22;7686;52.184;9.280;2023-04-06T08:32:00;28.50;28.40
15172;DHT22;7686;52.184;9.280;2023-04-06T08:34:32;28.50;28.50
15172;DHT22;7686;52.184;9.280;2023-04-06T08:36:59;28.60;28.50
15172;DHT22;7686;52.184;9.280;2023-04-06T08:39:27;28.60;28.50
15172;DHT22;7686;52.184;9.280;2023-04-06T08:41:54;28.70;28.50
15172;DHT22;7686;52.184;9.280;2023-04-06T08:44:23;28.70;28.60
15172;DHT22;7686;52.184;9.280;2023-04-06T08:46:50;28.70;28.60
15172;DHT22;7686;52.184;9.280;2023-04-06T08:49:18;28.80;28.60
15172;DHT22;7686;52.184;9.280;2023-04-06T08:51:44;28.80;28.60
15172;DHT22;7686;52.184;9.280;2023-04-06T08:54:11;28.90;28.60
15172;DHT22;7686;52.184;9.280;2023-04-06T08:56:39;28.90;28.70
15172;DHT22;7686;52.184;9.280;2023-04-06T08:59:06;29.00;28.60
15172;DHT22;7686;52.184;9.280;2023-04-06T09:01:38;29.00;28.30
15172;DHT22;7686;52.184;9.280;2023-04-06T09:04:07;29.00;26.50
15172;DHT22;7686;52.184;9.280;2023-04-06T09:06:39;29.10;26.20
15172;DHT22;7686;52.184;9.280;2023-04-06T09:09:07;29.10;25.60
15172;DHT22;7686;52.184;9.280;2023-04-06T09:11:48;29.00;25.20
15172;DHT22;7686;52.184;9.280;2023-04-06T09:14:14;28.90;24.80
15172;DHT22;7686;52.184;9.280;2023-04-06T09:16:43;28.80;25.40
15172;DHT22;7686;52.184;9.280;2023-04-06T09:19:12;28.70;24.70
15172;DHT22;7686;52.184;9.280;2023-04-06T09:21:39;28.50;24.30
15172;DHT22;7686;52.184;9.280;2023-04-06T09:24:09;28.40;23.90
15172;DHT22;7686;52.184;9.280;2023-04-06T09:26:46;28.10;23.70
15172;DHT22;7686;52.184;9.280;2023-04-06T09:29:24;27.80;23.20
15172;DHT22;7686;52.184;9.280;2023-04-06T09:32:05;27.60;23.20
15172;DHT22;7686;52.184;9.280;2023-04-06T09:34:32;27.30;23.30
15172;DHT22;7686;52.184;9.280;2023-04-06T09:36:59;27.00;23.70
15172;DHT22;7686;52.184;9.280;2023-04-06T09:39:26;26.80;24.00
15172;DHT22;7686;52.184;9.280;2023-04-06T09:41:53;26.80;24.20
15172;DHT22;7686;52.184;9.280;2023-04-06T09:44:20;26.70;24.10
15172;DHT22;7686;52.184;9.280;2023-04-06T09:46:53;26.70;24.60
15172;DHT22;7686;52.184;9.280;2023-04-06T09:49:31;26.80;24.90
15172;DHT22;7686;52.184;9.280;2023-04-06T09:52:01;26.90;25.00
15172;DHT22;7686;52.184;9.280;2023-04-06T09:54:30;27.10;25.40
15172;DHT22;7686;52.184;9.280;2023-04-06T10:00:05;27.60;25.40
15172;DHT22;7686;52.184;9.280;2023-04-06T10:08:09;28.40;25.30
15172;DHT22;7686;52.184;9.280;2023-04-06T10:10:37;28.70;25.30
15172;DHT22;7686;52.184;9.280;2023-04-06T10:13:04;29.00;25.50
15172;DHT22;7686;52.184;9.280;2023-04-06T10:15:31;29.20;25.50
15172;DHT22;7686;52.184;9.280;2023-04-06T10:17:59;29.40;25.50
15172;DHT22;7686;52.184;9.280;2023-04-06T10:20:48;29.60;25.30
15172;DHT22;7686;52.184;9.280;2023-04-06T10:23:19;29.90;25.20
15172;DHT22;7686;52.184;9.280;2023-04-06T10:25:53;30.10;25.30
15172;DHT22;7686;52.184;9.280;2023-04-06T10:28:21;30.30;25.10
15172;DHT22;7686;52.184;9.280;2023-04-06T10:30:48;30.50;25.20
15172;DHT22;7686;52.184;9.280;2023-04-06T10:33:17;30.60;25.20
15172;DHT22;7686;52.184;9.280;2023-04-06T10:35:44;30.80;25.10
15172;DHT22;7686;52.184;9.280;2023-04-06T10:38:11;30.90;25.10
15172;DHT22;7686;52.184;9.280;2023-04-06T10:40:42;31.00;25.10
15172;DHT22;7686;52.184;9.280;2023-04-06T10:43:22;31.00;24.50
15172;DHT22;7686;52.184;9.280;2023-04-06T10:45:56;31.10;24.70
15172;DHT22;7686;52.184;9.280;2023-04-06T10:48:23;31.20;24.80
15172;DHT22;7686;52.184;9.280;2023-04-06T10:50:52;31.30;24.90
15172;DHT22;7686;52.184;9.280;2023-04-06T10:55:50;31.30;24.90
15172;DHT22;7686;52.184;9.280;2023-04-06T10:58:17;31.50;25.10
15172;DHT22;7686;52.184;9.280;2023-04-06T11:00:48;31.30;25.00
15172;DHT22;7686;52.184;9.280;2023-04-06T11:03:18;31.30;25.00
15172;DHT22;7686;52.184;9.280;2023-04-06T11:05:45;31.30;25.20
15172;DHT22;7686;52.184;9.280;2023-04-06T11:08:32;31.30;25.20
15172;DHT22;7686;52.184;9.280;2023-04-06T11:11:10;31.20;25.30
15172;DHT22;7686;52.184;9.280;2023-04-06T11:13:49;31.20;25.30
15172;DHT22;7686;52.184;9.280;2023-04-06T11:19:07;31.20;25.60
15172;DHT22;7686;52.184;9.280;2023-04-06T11:21:45;31.20;25.60
15172;DHT22;7686;52.184;9.280;2023-04-06T11:24:17;31.20;25.70
15172;DHT22;7686;52.184;9.280;2023-04-06T11:26:46;31.20;25.80
15172;DHT22;7686;52.184;9.280;2023-04-06T11:29:16;31.20;25.80
15172;DHT22;7686;52.184;9.280;2023-04-06T11:31:48;31.20;25.90
15172;DHT22;7686;52.184;9.280;2023-04-06T11:34:20;31.30;26.00
15172;DHT22;7686;52.184;9.280;2023-04-06T11:36:48;31.30;26.00
15172;DHT22;7686;52.184;9.280;2023-04-06T11:39:20;31.30;26.00
15172;DHT22;7686;52.184;9.280;2023-04-06T11:41:48;31.30;26.00
15172;DHT22;7686;52.184;9.280;2023-04-06T11:44:26;31.40;26.10
15172;DHT22;7686;52.184;9.280;2023-04-06T11:46:53;31.40;26.10
15172;DHT22;7686;52.184;9.280;2023-04-06T11:49:20;31.40;26.10
15172;DHT22;7686;52.184;9.280;2023-04-06T11:51:46;31.50;26.10
15172;DHT22;7686;52.184;9.280;2023-04-06T11:54:13;31.50;26.20
15172;DHT22;7686;52.184;9.280;2023-04-06T11:56:40;31.50;26.20
15172;DHT22;7686;52.184;9.280;2023-04-06T11:59:06;31.60;26.20
15172;DHT22;7686;52.184;9.280;2023-04-06T12:01:33;31.60;26.20
15172;DHT22;7686;52.184;9.280;2023-04-06T12:04:04;31.70;26.40
15172;DHT22;7686;52.184;9.280;2023-04-06T12:06:31;31.70;26.40
15172;DHT22;7686;52.184;9.280;2023-04-06T12:08:58;31.70;26.50
15172;DHT22;7686;52.184;9.280;2023-04-06T12:11:24;31.80;26.50
15172;DHT22;7686;52.184;9.280;2023-04-06T12:13:51;31.90;26.50
15172;DHT22;7686;52.184;9.280;2023-04-06T12:16:18;31.90;26.50
15172;DHT22;7686;52.184;9.280;2023-04-06T12:18:46;31.90;26.40
15172;DHT22;7686;52.184;9.280;2023-04-06T12:21:12;32.00;26.40
15172;DHT22;7686;52.184;9.280;2023-04-06T12:23:39;32.10;26.50
15172;DHT22;7686;52.184;9.280;2023-04-06T12:26:06;32.10;26.40
15172;DHT22;7686;52.184;9.280;2023-04-06T12:28:38;32.10;26.30
15172;DHT22;7686;52.184;9.280;2023-04-06T12:31:05;32.20;26.30
15172;DHT22;7686;52.184;9.280;2023-04-06T12:33:32;32.20;26.30
15172;DHT22;7686;52.184;9.280;2023-04-06T12:35:59;32.20;26.20
15172;DHT22;7686;52.184;9.280;2023-04-06T12:38:26;32.30;26.40
15172;DHT22;7686;52.184;9.280;2023-04-06T12:40:52;32.40;26.40
15172;DHT22;7686;52.184;9.280;2023-04-06T12:43:19;32.40;26.40
15172;DHT22;7686;52.184;9.280;2023-04-06T12:45:46;32.40;26.50
15172;DHT22;7686;52.184;9.280;2023-04-06T12:48:12;32.40;26.50
15172;DHT22;7686;52.184;9.280;2023-04-06T12:50:39;32.50;26.60
15172;DHT22;7686;52.184;9.280;2023-04-06T12:53:06;32.50;26.60
15172;DHT22;7686;52.184;9.280;2023-04-06T12:55:32;32.60;26.70
15172;DHT22;7686;52.184;9.280;2023-04-06T12:58:00;32.60;26.70
15172;DHT22;7686;52.184;9.280;2023-04-06T13:00:27;32.60;26.70
15172;DHT22;7686;52.184;9.280;2023-04-06T13:02:54;32.70;26.70
15172;DHT22;7686;52.184;9.280;2023-04-06T13:05:21;32.70;26.60
15172;DHT22;7686;52.184;9.280;2023-04-06T13:07:47;32.80;26.60
15172;DHT22;7686;52.184;9.280;2023-04-06T13:10:14;32.80;26.60
15172;DHT22;7686;52.184;9.280;2023-04-06T13:12:41;32.80;26.60
15172;DHT22;7686;52.184;9.280;2023-04-06T13:15:08;32.80;26.50
15172;DHT22;7686;52.184;9.280;2023-04-06T13:17:35;32.90;26.50
15172;DHT22;7686;52.184;9.280;2023-04-06T13:20:01;32.90;26.50
15172;DHT22;7686;52.184;9.280;2023-04-06T13:22:29;32.90;26.50
15172;DHT22;7686;52.184;9.280;2023-04-06T13:24:56;33.00;26.60
15172;DHT22;7686;52.184;9.280;2023-04-06T13:27:23;33.00;26.60
15172;DHT22;7686;52.184;9.280;2023-04-06T13:29:49;33.00;26.60
15172;DHT22;7686;52.184;9.280;2023-04-06T13:32:16;33.00;26.60
15172;DHT22;7686;52.184;9.280;2023-04-06T13:34:43;33.10;26.60
15172;DHT22;7686;52.184;9.280;2023-04-06T13:37:15;33.10;26.60
15172;DHT22;7686;52.184;9.280;2023-04-06T13:39:42;33.20;26.60
15172;DHT22;7686;52.184;9.280;2023-04-06T13:42:09;33.20;26.60
15172;DHT22;7686;52.184;9.280;2023-04-06T13:44:36;33.20;26.60
15172;DHT22;7686;52.184;9.280;2023-04-06T13:47:03;33.20;26.70
15172;DHT22;7686;52.184;9.280;2023-04-06T13:49:29;33.20;26.20
15172;DHT22;7686;52.184;9.280;2023-04-06T13:51:56;33.20;26.10
15172;DHT22;7686;52.184;9.280;2023-04-06T13:54:23;33.30;25.40
15172;DHT22;7686;52.184;9.280;2023-04-06T13:56:51;33.20;24.30
15172;DHT22;7686;52.184;9.280;2023-04-06T13:59:18;33.20;24.30
15172;DHT22;7686;52.184;9.280;2023-04-06T14:01:45;33.20;24.50
15172;DHT22;7686;52.184;9.280;2023-04-06T14:04:11;33.10;24.40
15172;DHT22;7686;52.184;9.280;2023-04-06T14:06:38;33.10;24.20
15172;DHT22;7686;52.184;9.280;2023-04-06T14:09:05;33.00;23.90
15172;DHT22;7686;52.184;9.280;2023-04-06T14:11:32;32.90;23.70
15172;DHT22;7686;52.184;9.280;2023-04-06T14:13:59;32.90;23.70
15172;DHT22;7686;52.184;9.280;2023-04-06T14:16:25;32.90;23.80
15172;DHT22;7686;52.184;9.280;2023-04-06T14:18:53;32.80;23.70
15172;DHT22;7686;52.184;9.280;2023-04-06T14:21:19;32.80;23.60
15172;DHT22;7686;52.184;9.280;2023-04-06T14:23:46;32.90;23.60
15172;DHT22;7686;52.184;9.280;2023-04-06T14:26:13;32.80;23.70
15172;DHT22;7686;52.184;9.280;2023-04-06T14:28:41;32.70;23.50
15172;DHT22;7686;52.184;9.280;2023-04-06T14:31:14;32.70;23.50
15172;DHT22;7686;52.184;9.280;2023-04-06T14:33:42;32.70;23.00
15172;DHT22;7686;52.184;9.280;2023-04-06T14:36:10;32.80;23.40
15172;DHT22;7686;52.184;9.280;2023-04-06T14:38:37;32.60;23.30
15172;DHT22;7686;52.184;9.280;2023-04-06T14:41:04;32.60;22.70
15172;DHT22;7686;52.184;9.280;2023-04-06T14:43:31;32.60;22.70
15172;DHT22;7686;52.184;9.280;2023-04-06T14:46:01;32.60;22.20
15172;DHT22;7686;52.184;9.280;2023-04-06T14:48:28;32.60;22.60
15172;DHT22;7686;52.184;9.280;2023-04-06T14:50:56;32.50;23.00
15172;DHT22;7686;52.184;9.280;2023-04-06T14:53:23;32.50;22.70
15172;DHT22;7686;52.184;9.280;2023-04-06T14:55:50;32.50;23.00
15172;DHT22;7686;52.184;9.280;2023-04-06T14:58:21;32.40;23.10
15172;DHT22;7686;52.184;9.280;2023-04-06T15:00:48;32.40;23.20
15172;DHT22;7686;52.184;9.280;2023-04-06T15:03:15;32.40;23.20
15172;DHT22;7686;52.184;9.280;2023-04-06T15:05:44;32.40;23.20
15172;DHT22;7686;52.184;9.280;2023-04-06T15:08:10;32.30;23.20
15172;DHT22;7686;52.184;9.280;2023-04-06T15:10:38;32.30;23.20
15172;DHT22;7686;52.184;9.280;2023-04-06T15:13:04;32.30;23.20
15172;DHT22;7686;52.184;9.280;2023-04-06T15:15:31;32.30;23.20
15172;DHT22;7686;52.184;9.280;2023-04-06T15:17:58;32.20;23.30
15172;DHT22;7686;52.184;9.280;2023-04-06T15:20:24;32.20;23.20
15172;DHT22;7686;52.184;9.280;2023-04-06T15:22:51;32.20;23.20
15172;DHT22;7686;52.184;9.280;2023-04-06T15:25:18;32.20;23.10
15172;DHT22;7686;52.184;9.280;2023-04-06T15:27:44;32.20;22.90
15172;DHT22;7686;52.184;9.280;2023-04-06T15:30:11;32.10;22.80
15172;DHT22;7686;52.184;9.280;2023-04-06T15:32:38;32.10;22.60
15172;DHT22;7686;52.184;9.280;2023-04-06T15:35:11;32.00;22.60
15172;DHT22;7686;52.184;9.280;2023-04-06T15:37:38;32.00;22.60
15172;DHT22;7686;52.184;9.280;2023-04-06T15:40:05;32.00;23.00
15172;DHT22;7686;52.184;9.280;2023-04-06T15:42:32;31.90;22.80
15172;DHT22;7686;52.184;9.280;2023-04-06T15:44:59;31.90;23.20
15172;DHT22;7686;52.184;9.280;2023-04-06T15:47:25;31.90;22.60
15172;DHT22;7686;52.184;9.280;2023-04-06T15:49:52;31.80;22.60
15172;DHT22;7686;52.184;9.280;2023-04-06T15:52:19;31.80;22.80
15172;DHT22;7686;52.184;9.280;2023-04-06T15:54:45;31.80;22.40
15172;DHT22;7686;52.184;9.280;2023-04-06T15:57:13;31.80;22.60
15172;DHT22;7686;52.184;9.280;2023-04-06T15:59:40;31.80;22.60